sensor_id;sensor_type;location;lat;lon;timestamp;P1;durP1;ratioP1;P2;durP2;ratioP2
16270;SDS011;8243;49.048;8.396;2023-04-06T00:00:48;7.03;;;4.30;;
16270;SDS011;8243;49.048;8.396;2023-04-06T00:03:14;5.93;;;4.47;;
16270;SDS011;8243;49.048;8.396;2023-04-06T00:05:40;5.03;;;3.77;;
16270;SDS011;8243;49.048;8.396;2023-04-06T00:08:06;5.90;;;4.03;;
16270;SDS011;8243;49.048;8.396;2023-04-06T00:10:31;5.67;;;4.30;;
16270;SDS011;8243;49.048;8.396;2023-04-06T00:12:57;6.70;;;4.80;;
16270;SDS011;8243;49.048;8.396;2023-04-06T00:15:24;5.63;;;4.50;;
16270;SDS011;8243;49.048;8.396;2023-04-06T00:17:50;6.00;;;4.17;;
16270;SDS011;8243;49.048;8.396;2023-04-06T00:20:15;5.90;;;4.83;;
16270;SDS011;8243;49.048;8.396;2023-04-06T00:22:41;6.93;;;4.10;;
16270;SDS011;8243;49.048;8.396;2023-04-06T00:25:07;6.03;;;4.47;;
16270;SDS011;8243;49.048;8.396;2023-04-06T00:27:35;6.93;;;4.47;;
16270;SDS011;8243;49.048;8.396;2023-04-06T00:30:00;5.27;;;4.33;;
16270;SDS011;8243;49.048;8.396;2023-04-06T00:32:26;4.90;;;4.07;;
16270;SDS011;8243;49.048;8.396;2023-04-06T00:34:52;4.63;;;4.13;;
16270;SDS011;8243;49.048;8.396;2023-04-06T00:37:18;5.50;;;4.60;;
16270;SDS011;8243;49.048;8.396;2023-04-06T00:39:44;4.83;;;4.03;;
16270;SDS011;8243;49.048;8.396;2023-04-06T00:42:13;6.63;;;4.40;;
16270;SDS011;8243;49.048;8.396;2023-04-06T00:44:42;6.90;;;5.57;;
16270;SDS011;8243;49.048;8.396;2023-04-06T00:47:08;6.97;;;5.03;;
16270;SDS011;8243;49.048;8.396;2023-04-06T00:49:34;6.10;;;5.10;;
16270;SDS011;8243;49.048;8.396;2023-04-06T00:52:00;5.67;;;4.50;;
16270;SDS011;8243;49.048;8.396;2023-04-06T00:54:27;8.90;;;4.90;;
16270;SDS011;8243;49.048;8.396;2023-04-06T00:56:53;7.27;;;4.50;;
16270;SDS011;8243;49.048;8.396;2023-04-06T00:59:20;5.47;;;4.10;;
16270;SDS011;8243;49.048;8.396;2023-04-06T01:01:45;4.67;;;3.73;;
16270;SDS011;8243;49.048;8.396;2023-04-06T01:04:11;5.40;;;4.90;;
16270;SDS011;8243;49.048;8.396;2023-04-06T01:06:37;5.33;;;4.73;;
16270;SDS011;8243;49.048;8.396;2023-04-06T01:09:02;5.60;;;4.50;;
16270;SDS011;8243;49.048;8.396;2023-04-06T01:11:28;6.27;;;4.20;;
16270;SDS011;8243;49.048;8.396;2023-04-06T01:13:53;5.33;;;4.30;;
16270;SDS011;8243;49.048;8.396;2023-04-06T01:16:20;9.00;;;4.17;;
16270;SDS011;8243;49.048;8.396;2023-04-06T01:18:46;5.53;;;4.50;;
16270;SDS011;8243;49.048;8.396;2023-04-06T01:21:11;6.43;;;4.50;;
16270;SDS011;8243;49.048;8.396;2023-04-06T01:23:44;5.70;;;3.87;;
16270;SDS011;8243;49.048;8.396;2023-04-06T01:26:11;5.13;;;4.57;;
16270;SDS011;8243;49.048;8.396;2023-04-06T01:28:37;5.20;;;4.30;;
16270;SDS011;8243;49.048;8.396;2023-04-06T01:31:03;5.27;;;4.23;;
16270;SDS011;8243;49.048;8.396;2023-04-06T01:33:30;4.93;;;4.20;;
16270;SDS011;8243;49.048;8.396;2023-04-06T01:35:55;5.27;;;4.70;;
16270;SDS011;8243;49.048;8.396;2023-04-06T01:38:21;6.17;;;4.60;;
16270;SDS011;8243;49.048;8.396;2023-04-06T01:40:46;6.07;;;4.60;;
16270;SDS011;8243;49.048;8.396;2023-04-06T01:43:12;6.23;;;4.60;;
16270;SDS011;8243;49.048;8.396;2023-04-06T01:45:37;7.33;;;5.33;;
16270;SDS011;8243;49.048;8.396;2023-04-06T01:48:03;5.27;;;4.43;;
16270;SDS011;8243;49.048;8.396;2023-04-06T01:50:29;7.03;;;4.77;;
16270;SDS011;8243;49.048;8.396;2023-04-06T01:52:55;4.97;;;3.97;;
16270;SDS011;8243;49.048;8.396;2023-04-06T01:55:20;4.93;;;4.43;;
16270;SDS011;8243;49.048;8.396;2023-04-06T01:57:46;5.03;;;4.20;;
16270;SDS011;8243;49.048;8.396;2023-04-06T02:00:12;6.07;;;4.40;;
16270;SDS011;8243;49.048;8.396;2023-04-06T02:02:38;6.93;;;4.63;;
16270;SDS011;8243;49.048;8.396;2023-04-06T02:05:03;4.87;;;4.23;;
16270;SDS011;8243;49.048;8.396;2023-04-06T02:07:29;4.80;;;4.30;;
16270;SDS011;8243;49.048;8.396;2023-04-06T02:09:55;5.43;;;4.23;;
16270;SDS011;8243;49.048;8.396;2023-04-06T02:12:21;6.07;;;4.27;;
16270;SDS011;8243;49.048;8.396;2023-04-06T02:14:46;5.30;;;4.50;;
16270;SDS011;8243;49.048;8.396;2023-04-06T02:17:12;5.53;;;4.20;;
16270;SDS011;8243;49.048;8.396;2023-04-06T02:19:37;5.80;;;4.50;;
16270;SDS011;8243;49.048;8.396;2023-04-06T02:22:03;5.80;;;4.50;;
16270;SDS011;8243;49.048;8.396;2023-04-06T02:24:28;6.07;;;4.20;;
16270;SDS011;8243;49.048;8.396;2023-04-06T02:26:54;5.33;;;4.33;;
16270;SDS011;8243;49.048;8.396;2023-04-06T02:29:19;5.97;;;4.30;;
16270;SDS011;8243;49.048;8.396;2023-04-06T02:31:45;4.57;;;4.07;;
16270;SDS011;8243;49.048;8.396;2023-04-06T02:34:11;5.23;;;4.63;;
16270;SDS011;8243;49.048;8.396;2023-04-06T02:36:42;5.63;;;4.57;;
16270;SDS011;8243;49.048;8.396;2023-04-06T02:39:09;5.77;;;4.20;;
16270;SDS011;8243;49.048;8.396;2023-04-06T02:41:35;5.40;;;4.43;;
16270;SDS011;8243;49.048;8.396;2023-04-06T02:44:00;6.07;;;4.73;;
16270;SDS011;8243;49.048;8.396;2023-04-06T02:46:26;6.30;;;4.93;;
16270;SDS011;8243;49.048;8.396;2023-04-06T02:48:51;5.80;;;4.40;;
16270;SDS011;8243;49.048;8.396;2023-04-06T02:51:17;5.23;;;4.37;;
16270;SDS011;8243;49.048;8.396;2023-04-06T02:53:43;6.87;;;4.50;;
16270;SDS011;8243;49.048;8.396;2023-04-06T02:56:08;6.67;;;4.80;;
16270;SDS011;8243;49.048;8.396;2023-04-06T02:58:34;6.03;;;4.63;;
16270;SDS011;8243;49.048;8.396;2023-04-06T03:01:00;4.97;;;4.47;;
16270;SDS011;8243;49.048;8.396;2023-04-06T03:03:25;8.13;;;4.77;;
16270;SDS011;8243;49.048;8.396;2023-04-06T03:05:51;4.83;;;4.30;;
16270;SDS011;8243;49.048;8.396;2023-04-06T03:08:16;5.53;;;4.93;;
16270;SDS011;8243;49.048;8.396;2023-04-06T03:10:42;6.27;;;4.83;;
16270;SDS011;8243;49.048;8.396;2023-04-06T03:13:07;5.67;;;4.67;;
16270;SDS011;8243;49.048;8.396;2023-04-06T03:15:33;6.93;;;4.70;;
16270;SDS011;8243;49.048;8.396;2023-04-06T03:17:58;6.70;;;4.93;;
16270;SDS011;8243;49.048;8.396;2023-04-06T03:20:24;5.00;;;4.57;;
16270;SDS011;8243;49.048;8.396;2023-04-06T03:22:50;6.30;;;4.50;;
16270;SDS011;8243;49.048;8.396;2023-04-06T03:25:15;6.30;;;4.00;;
16270;SDS011;8243;49.048;8.396;2023-04-06T03:27:41;5.30;;;4.40;;
16270;SDS011;8243;49.048;8.396;2023-04-06T03:30:07;5.07;;;4.57;;
16270;SDS011;8243;49.048;8.396;2023-04-06T03:32:32;5.93;;;5.03;;
16270;SDS011;8243;49.048;8.396;2023-04-06T03:34:58;4.57;;;4.17;;
16270;SDS011;8243;49.048;8.396;2023-04-06T03:37:23;6.40;;;4.80;;
16270;SDS011;8243;49.048;8.396;2023-04-06T03:39:49;7.23;;;4.70;;
16270;SDS011;8243;49.048;8.396;2023-04-06T03:42:15;6.03;;;4.80;;
16270;SDS011;8243;49.048;8.396;2023-04-06T03:44:41;6.27;;;4.40;;
16270;SDS011;8243;49.048;8.396;2023-04-06T03:47:06;7.57;;;4.93;;
16270;SDS011;8243;49.048;8.396;2023-04-06T03:49:32;5.37;;;4.20;;
16270;SDS011;8243;49.048;8.396;2023-04-06T03:51:57;5.27;;;4.77;;
16270;SDS011;8243;49.048;8.396;2023-04-06T03:54:23;5.90;;;4.93;;
16270;SDS011;8243;49.048;8.396;2023-04-06T03:56:48;7.50;;;5.17;;
16270;SDS011;8243;49.048;8.396;2023-04-06T03:59:14;5.37;;;4.70;;
16270;SDS011;8243;49.048;8.396;2023-04-06T04:01:40;5.80;;;5.00;;
16270;SDS011;8243;49.048;8.396;2023-04-06T04:04:05;6.67;;;4.70;;
16270;SDS011;8243;49.048;8.396;2023-04-06T04:06:31;6.03;;;5.27;;
16270;SDS011;8243;49.048;8.396;2023-04-06T04:08:56;7.50;;;5.33;;
16270;SDS011;8243;49.048;8.396;2023-04-06T04:11:22;6.73;;;6.03;;
16270;SDS011;8243;49.048;8.396;2023-04-06T04:13:47;7.53;;;4.63;;
16270;SDS011;8243;49.048;8.396;2023-04-06T04:16:13;7.47;;;5.03;;
16270;SDS011;8243;49.048;8.396;2023-04-06T04:18:38;6.83;;;4.83;;
16270;SDS011;8243;49.048;8.396;2023-04-06T04:21:04;5.43;;;4.70;;
16270;SDS011;8243;49.048;8.396;2023-04-06T04:23:30;7.63;;;4.40;;
16270;SDS011;8243;49.048;8.396;2023-04-06T04:25:55;6.67;;;4.47;;
16270;SDS011;8243;49.048;8.396;2023-04-06T04:28:21;6.80;;;5.00;;
16270;SDS011;8243;49.048;8.396;2023-04-06T04:30:46;5.30;;;4.70;;
16270;SDS011;8243;49.048;8.396;2023-04-06T04:33:12;8.87;;;4.63;;
16270;SDS011;8243;49.048;8.396;2023-04-06T04:35:37;5.63;;;4.40;;
16270;SDS011;8243;49.048;8.396;2023-04-06T04:38:03;4.90;;;4.40;;
16270;SDS011;8243;49.048;8.396;2023-04-06T04:40:28;6.10;;;4.77;;
16270;SDS011;8243;49.048;8.396;2023-04-06T04:42:54;7.57;;;5.13;;
16270;SDS011;8243;49.048;8.396;2023-04-06T04:45:20;7.77;;;4.97;;
16270;SDS011;8243;49.048;8.396;2023-04-06T04:47:45;6.87;;;5.00;;
16270;SDS011;8243;49.048;8.396;2023-04-06T04:50:11;7.23;;;5.30;;
16270;SDS011;8243;49.048;8.396;2023-04-06T04:52:37;7.93;;;5.03;;
16270;SDS011;8243;49.048;8.396;2023-04-06T04:55:03;6.23;;;5.03;;
16270;SDS011;8243;49.048;8.396;2023-04-06T04:57:28;5.70;;;5.10;;
16270;SDS011;8243;49.048;8.396;2023-04-06T04:59:54;6.37;;;5.20;;
16270;SDS011;8243;49.048;8.396;2023-04-06T05:02:20;5.80;;;5.03;;
16270;SDS011;8243;49.048;8.396;2023-04-06T05:04:45;6.80;;;5.00;;
16270;SDS011;8243;49.048;8.396;2023-04-06T05:07:11;8.00;;;5.17;;
16270;SDS011;8243;49.048;8.396;2023-04-06T05:09:36;7.47;;;4.60;;
16270;SDS011;8243;49.048;8.396;2023-04-06T05:12:02;7.17;;;4.87;;
16270;SDS011;8243;49.048;8.396;2023-04-06T05:14:28;5.83;;;4.90;;
16270;SDS011;8243;49.048;8.396;2023-04-06T05:16:53;5.63;;;4.57;;
16270;SDS011;8243;49.048;8.396;2023-04-06T05:19:19;7.37;;;4.77;;
16270;SDS011;8243;49.048;8.396;2023-04-06T05:21:45;7.37;;;5.00;;
16270;SDS011;8243;49.048;8.396;2023-04-06T05:24:10;7.53;;;5.07;;
16270;SDS011;8243;49.048;8.396;2023-04-06T05:26:37;6.43;;;4.47;;
16270;SDS011;8243;49.048;8.396;2023-04-06T05:29:03;5.60;;;4.50;;
16270;SDS011;8243;49.048;8.396;2023-04-06T05:31:28;4.70;;;4.20;;
16270;SDS011;8243;49.048;8.396;2023-04-06T05:33:54;6.80;;;5.17;;
16270;SDS011;8243;49.048;8.396;2023-04-06T05:36:21;6.03;;;4.50;;
16270;SDS011;8243;49.048;8.396;2023-04-06T05:38:47;5.27;;;4.27;;
16270;SDS011;8243;49.048;8.396;2023-04-06T05:41:12;4.70;;;4.10;;
16270;SDS011;8243;49.048;8.396;2023-04-06T05:43:38;5.50;;;3.83;;
16270;SDS011;8243;49.048;8.396;2023-04-06T05:46:03;5.97;;;4.40;;
16270;SDS011;8243;49.048;8.396;2023-04-06T05:48:29;8.20;;;4.50;;
16270;SDS011;8243;49.048;8.396;2023-04-06T05:50:55;6.07;;;4.73;;
16270;SDS011;8243;49.048;8.396;2023-04-06T05:53:20;6.60;;;4.30;;
16270;SDS011;8243;49.048;8.396;2023-04-06T05:55:46;5.40;;;4.43;;
16270;SDS011;8243;49.048;8.396;2023-04-06T05:58:12;5.80;;;4.43;;
16270;SDS011;8243;49.048;8.396;2023-04-06T06:00:38;14.10;;;5.20;;
16270;SDS011;8243;49.048;8.396;2023-04-06T06:03:03;12.17;;;4.93;;
16270;SDS011;8243;49.048;8.396;2023-04-06T06:05:30;8.30;;;4.73;;
16270;SDS011;8243;49.048;8.396;2023-04-06T06:07:56;5.57;;;3.90;;
16270;SDS011;8243;49.048;8.396;2023-04-06T06:10:21;7.70;;;4.00;;
16270;SDS011;8243;49.048;8.396;2023-04-06T06:12:47;6.40;;;4.07;;
16270;SDS011;8243;49.048;8.396;2023-04-06T06:15:12;4.63;;;3.43;;
16270;SDS011;8243;49.048;8.396;2023-04-06T06:17:38;4.20;;;3.50;;
16270;SDS011;8243;49.048;8.396;2023-04-06T06:20:05;4.63;;;3.90;;
16270;SDS011;8243;49.048;8.396;2023-04-06T06:22:32;3.87;;;3.47;;
16270;SDS011;8243;49.048;8.396;2023-04-06T06:24:57;4.17;;;3.77;;
16270;SDS011;8243;49.048;8.396;2023-04-06T06:27:23;6.27;;;3.83;;
16270;SDS011;8243;49.048;8.396;2023-04-06T06:29:48;7.57;;;3.80;;
16270;SDS011;8243;49.048;8.396;2023-04-06T06:32:14;8.33;;;3.63;;
16270;SDS011;8243;49.048;8.396;2023-04-06T06:34:40;4.73;;;4.23;;
16270;SDS011;8243;49.048;8.396;2023-04-06T06:37:05;4.90;;;4.23;;
16270;SDS011;8243;49.048;8.396;2023-04-06T06:39:31;4.97;;;4.30;;
16270;SDS011;8243;49.048;8.396;2023-04-06T06:41:57;7.43;;;4.30;;
16270;SDS011;8243;49.048;8.396;2023-04-06T06:44:25;5.93;;;4.50;;
16270;SDS011;8243;49.048;8.396;2023-04-06T06:46:51;6.50;;;4.93;;
16270;SDS011;8243;49.048;8.396;2023-04-06T06:49:16;6.43;;;5.07;;
16270;SDS011;8243;49.048;8.396;2023-04-06T06:51:42;7.13;;;5.27;;
16270;SDS011;8243;49.048;8.396;2023-04-06T06:54:08;6.67;;;4.97;;
16270;SDS011;8243;49.048;8.396;2023-04-06T06:56:33;10.20;;;5.53;;
16270;SDS011;8243;49.048;8.396;2023-04-06T06:59:00;5.70;;;4.93;;
16270;SDS011;8243;49.048;8.396;2023-04-06T07:01:26;6.23;;;4.77;;
16270;SDS011;8243;49.048;8.396;2023-04-06T07:03:51;5.83;;;4.90;;
16270;SDS011;8243;49.048;8.396;2023-04-06T07:06:17;5.63;;;4.77;;
16270;SDS011;8243;49.048;8.396;2023-04-06T07:08:42;6.23;;;4.90;;
16270;SDS011;8243;49.048;8.396;2023-04-06T07:11:08;5.73;;;5.00;;
16270;SDS011;8243;49.048;8.396;2023-04-06T07:13:33;7.77;;;5.30;;
16270;SDS011;8243;49.048;8.396;2023-04-06T07:15:59;7.13;;;5.10;;
16270;SDS011;8243;49.048;8.396;2023-04-06T07:18:25;10.30;;;6.13;;
16270;SDS011;8243;49.048;8.396;2023-04-06T07:20:50;8.77;;;5.33;;
16270;SDS011;8243;49.048;8.396;2023-04-06T07:23:16;7.37;;;4.83;;
16270;SDS011;8243;49.048;8.396;2023-04-06T07:25:41;5.30;;;4.27;;
16270;SDS011;8243;49.048;8.396;2023-04-06T07:28:07;5.47;;;4.93;;
16270;SDS011;8243;49.048;8.396;2023-04-06T07:30:32;7.17;;;4.60;;
16270;SDS011;8243;49.048;8.396;2023-04-06T07:32:58;6.20;;;4.90;;
16270;SDS011;8243;49.048;8.396;2023-04-06T07:35:24;5.37;;;4.57;;
16270;SDS011;8243;49.048;8.396;2023-04-06T07:37:51;7.40;;;5.23;;
16270;SDS011;8243;49.048;8.396;2023-04-06T07:40:17;6.57;;;5.00;;
16270;SDS011;8243;49.048;8.396;2023-04-06T07:42:44;7.40;;;4.63;;
16270;SDS011;8243;49.048;8.396;2023-04-06T07:45:10;5.87;;;4.67;;
16270;SDS011;8243;49.048;8.396;2023-04-06T07:47:36;4.90;;;4.50;;
16270;SDS011;8243;49.048;8.396;2023-04-06T07:50:02;8.13;;;4.93;;
16270;SDS011;8243;49.048;8.396;2023-04-06T07:52:27;6.97;;;5.00;;
16270;SDS011;8243;49.048;8.396;2023-04-06T07:54:53;6.80;;;5.40;;
16270;SDS011;8243;49.048;8.396;2023-04-06T07:57:18;5.80;;;5.07;;
16270;SDS011;8243;49.048;8.396;2023-04-06T07:59:44;6.17;;;4.90;;
16270;SDS011;8243;49.048;8.396;2023-04-06T08:02:10;9.07;;;5.43;;
16270;SDS011;8243;49.048;8.396;2023-04-06T08:04:35;5.70;;;5.10;;
16270;SDS011;8243;49.048;8.396;2023-04-06T08:07:01;5.87;;;5.27;;
16270;SDS011;8243;49.048;8.396;2023-04-06T08:09:27;6.00;;;5.23;;
16270;SDS011;8243;49.048;8.396;2023-04-06T08:11:52;6.40;;;5.17;;
16270;SDS011;8243;49.048;8.396;2023-04-06T08:14:18;7.13;;;4.90;;
16270;SDS011;8243;49.048;8.396;2023-04-06T08:16:44;8.00;;;6.23;;
16270;SDS011;8243;49.048;8.396;2023-04-06T08:19:10;6.70;;;5.43;;
16270;SDS011;8243;49.048;8.396;2023-04-06T08:21:36;12.07;;;5.10;;
16270;SDS011;8243;49.048;8.396;2023-04-06T08:24:01;6.87;;;4.90;;
16270;SDS011;8243;49.048;8.396;2023-04-06T08:26:27;7.13;;;5.83;;
16270;SDS011;8243;49.048;8.396;2023-04-06T08:28:53;6.03;;;5.50;;
16270;SDS011;8243;49.048;8.396;2023-04-06T08:31:18;6.60;;;5.00;;
16270;SDS011;8243;49.048;8.396;2023-04-06T08:33:44;6.60;;;5.97;;
16270;SDS011;8243;49.048;8.396;2023-04-06T08:36:10;5.93;;;5.27;;
16270;SDS011;8243;49.048;8.396;2023-04-06T08:38:37;6.83;;;4.90;;
16270;SDS011;8243;49.048;8.396;2023-04-06T08:41:08;5.73;;;5.03;;
16270;SDS011;8243;49.048;8.396;2023-04-06T08:43:47;6.57;;;5.97;;
16270;SDS011;8243;49.048;8.396;2023-04-06T08:46:17;7.47;;;5.17;;
16270;SDS011;8243;49.048;8.396;2023-04-06T08:48:43;5.37;;;4.87;;
16270;SDS011;8243;49.048;8.396;2023-04-06T08:51:09;5.30;;;4.80;;
16270;SDS011;8243;49.048;8.396;2023-04-06T08:53:35;6.23;;;4.70;;
16270;SDS011;8243;49.048;8.396;2023-04-06T08:56:01;6.93;;;4.83;;
16270;SDS011;8243;49.048;8.396;2023-04-06T08:58:31;5.30;;;4.80;;
16270;SDS011;8243;49.048;8.396;2023-04-06T09:01:02;6.83;;;5.53;;
16270;SDS011;8243;49.048;8.396;2023-04-06T09:03:38;5.87;;;5.20;;
16270;SDS011;8243;49.048;8.396;2023-04-06T09:06:05;5.60;;;5.07;;
16270;SDS011;8243;49.048;8.396;2023-04-06T09:08:32;8.83;;;5.47;;
16270;SDS011;8243;49.048;8.396;2023-04-06T09:11:00;7.20;;;5.97;;
16270;SDS011;8243;49.048;8.396;2023-04-06T09:13:29;8.63;;;5.47;;
16270;SDS011;8243;49.048;8.396;2023-04-06T09:15:58;6.57;;;5.30;;
16270;SDS011;8243;49.048;8.396;2023-04-06T09:18:29;8.33;;;5.97;;
16270;SDS011;8243;49.048;8.396;2023-04-06T09:21:03;6.97;;;5.90;;
16270;SDS011;8243;49.048;8.396;2023-04-06T09:23:30;6.67;;;5.97;;
16270;SDS011;8243;49.048;8.396;2023-04-06T09:26:06;6.30;;;5.70;;
16270;SDS011;8243;49.048;8.396;2023-04-06T09:28:50;6.57;;;5.53;;
16270;SDS011;8243;49.048;8.396;2023-04-06T09:31:21;6.00;;;5.30;;
16270;SDS011;8243;49.048;8.396;2023-04-06T09:33:48;6.80;;;6.00;;
16270;SDS011;8243;49.048;8.396;2023-04-06T09:36:15;9.30;;;5.77;;
16270;SDS011;8243;49.048;8.396;2023-04-06T09:41:26;7.93;;;5.80;;
16270;SDS011;8243;49.048;8.396;2023-04-06T09:46:32;6.33;;;5.53;;
16270;SDS011;8243;49.048;8.396;2023-04-06T09:49:00;6.63;;;5.93;;
16270;SDS011;8243;49.048;8.396;2023-04-06T09:51:28;6.03;;;5.43;;
16270;SDS011;8243;49.048;8.396;2023-04-06T09:53:56;6.00;;;5.50;;
16270;SDS011;8243;49.048;8.396;2023-04-06T09:56:28;7.70;;;5.70;;
16270;SDS011;8243;49.048;8.396;2023-04-06T09:58:56;7.13;;;6.37;;
16270;SDS011;8243;49.048;8.396;2023-04-06T10:01:29;7.40;;;5.70;;
16270;SDS011;8243;49.048;8.396;2023-04-06T10:07:13;8.67;;;6.27;;
16270;SDS011;8243;49.048;8.396;2023-04-06T10:09:40;6.97;;;6.27;;
16270;SDS011;8243;49.048;8.396;2023-04-06T10:12:10;7.13;;;5.73;;
16270;SDS011;8243;49.048;8.396;2023-04-06T10:14:37;9.80;;;6.10;;
16270;SDS011;8243;49.048;8.396;2023-04-06T10:17:04;7.00;;;5.87;;
16270;SDS011;8243;49.048;8.396;2023-04-06T10:22:22;7.87;;;5.67;;
16270;SDS011;8243;49.048;8.396;2023-04-06T10:24:54;8.03;;;5.80;;
16270;SDS011;8243;49.048;8.396;2023-04-06T10:27:29;10.73;;;6.53;;
16270;SDS011;8243;49.048;8.396;2023-04-06T10:30:00;6.73;;;6.03;;
16270;SDS011;8243;49.048;8.396;2023-04-06T10:32:33;7.53;;;6.43;;
16270;SDS011;8243;49.048;8.396;2023-04-06T10:35:10;9.27;;;5.77;;
16270;SDS011;8243;49.048;8.396;2023-04-06T10:37:51;6.17;;;5.60;;
16270;SDS011;8243;49.048;8.396;2023-04-06T10:40:18;7.57;;;5.70;;
16270;SDS011;8243;49.048;8.396;2023-04-06T10:42:44;7.30;;;5.97;;
16270;SDS011;8243;49.048;8.396;2023-04-06T10:45:31;6.97;;;5.40;;
16270;SDS011;8243;49.048;8.396;2023-04-06T10:47:56;5.67;;;5.17;;
16270;SDS011;8243;49.048;8.396;2023-04-06T10:50:22;6.30;;;5.50;;
16270;SDS011;8243;49.048;8.396;2023-04-06T10:53:01;9.27;;;6.30;;
16270;SDS011;8243;49.048;8.396;2023-04-06T10:55:27;9.50;;;5.87;;
16270;SDS011;8243;49.048;8.396;2023-04-06T10:57:54;7.70;;;5.20;;
16270;SDS011;8243;49.048;8.396;2023-04-06T11:00:20;5.77;;;5.17;;
16270;SDS011;8243;49.048;8.396;2023-04-06T11:02:45;6.23;;;5.17;;
16270;SDS011;8243;49.048;8.396;2023-04-06T11:05:12;7.43;;;5.73;;
16270;SDS011;8243;49.048;8.396;2023-04-06T11:07:38;7.60;;;5.70;;
16270;SDS011;8243;49.048;8.396;2023-04-06T11:10:05;7.93;;;5.93;;
16270;SDS011;8243;49.048;8.396;2023-04-06T11:12:31;8.30;;;6.10;;
16270;SDS011;8243;49.048;8.396;2023-04-06T11:14:57;7.20;;;6.23;;
16270;SDS011;8243;49.048;8.396;2023-04-06T11:17:29;8.00;;;6.10;;
16270;SDS011;8243;49.048;8.396;2023-04-06T11:19:59;8.03;;;5.80;;
16270;SDS011;8243;49.048;8.396;2023-04-06T11:22:25;6.70;;;5.90;;
16270;SDS011;8243;49.048;8.396;2023-04-06T11:24:51;8.20;;;5.93;;
16270;SDS011;8243;49.048;8.396;2023-04-06T11:27:17;6.43;;;5.83;;
16270;SDS011;8243;49.048;8.396;2023-04-06T11:29:44;8.83;;;7.13;;
16270;SDS011;8243;49.048;8.396;2023-04-06T11:32:20;5.57;;;4.93;;
16270;SDS011;8243;49.048;8.396;2023-04-06T11:34:47;6.37;;;5.63;;
16270;SDS011;8243;49.048;8.396;2023-04-06T11:37:13;6.80;;;6.10;;
16270;SDS011;8243;49.048;8.396;2023-04-06T11:39:40;7.37;;;6.33;;
16270;SDS011;8243;49.048;8.396;2023-04-06T11:42:23;6.20;;;5.60;;
16270;SDS011;8243;49.048;8.396;2023-04-06T11:45:08;5.80;;;5.20;;
16270;SDS011;8243;49.048;8.396;2023-04-06T11:47:34;6.10;;;5.50;;
16270;SDS011;8243;49.048;8.396;2023-04-06T11:50:10;7.00;;;5.67;;
16270;SDS011;8243;49.048;8.396;2023-04-06T11:52:38;6.17;;;5.50;;
16270;SDS011;8243;49.048;8.396;2023-04-06T11:55:12;6.30;;;5.70;;
16270;SDS011;8243;49.048;8.396;2023-04-06T11:57:42;7.83;;;5.40;;
16270;SDS011;8243;49.048;8.396;2023-04-06T12:00:08;5.53;;;5.00;;
16270;SDS011;8243;49.048;8.396;2023-04-06T12:02:35;5.80;;;5.27;;
16270;SDS011;8243;49.048;8.396;2023-04-06T12:05:02;5.40;;;4.90;;
16270;SDS011;8243;49.048;8.396;2023-04-06T12:07:31;5.73;;;5.10;;
16270;SDS011;8243;49.048;8.396;2023-04-06T12:10:01;5.17;;;4.67;;
16270;SDS011;8243;49.048;8.396;2023-04-06T12:12:27;8.37;;;5.33;;
16270;SDS011;8243;49.048;8.396;2023-04-06T12:14:53;4.93;;;4.53;;
16270;SDS011;8243;49.048;8.396;2023-04-06T12:17:20;6.37;;;4.77;;
16270;SDS011;8243;49.048;8.396;2023-04-06T12:19:45;6.50;;;5.03;;
16270;SDS011;8243;49.048;8.396;2023-04-06T12:22:11;7.33;;;4.50;;
16270;SDS011;8243;49.048;8.396;2023-04-06T12:24:37;7.30;;;4.60;;
16270;SDS011;8243;49.048;8.396;2023-04-06T12:27:02;4.80;;;4.40;;
16270;SDS011;8243;49.048;8.396;2023-04-06T12:29:28;5.03;;;4.53;;
16270;SDS011;8243;49.048;8.396;2023-04-06T12:31:53;7.23;;;5.37;;
16270;SDS011;8243;49.048;8.396;2023-04-06T12:34:19;5.90;;;4.87;;
16270;SDS011;8243;49.048;8.396;2023-04-06T12:36:44;5.33;;;4.83;;
16270;SDS011;8243;49.048;8.396;2023-04-06T12:39:10;5.27;;;4.77;;
16270;SDS011;8243;49.048;8.396;2023-04-06T12:41:36;8.50;;;5.37;;
16270;SDS011;8243;49.048;8.396;2023-04-06T12:44:02;5.40;;;4.90;;
16270;SDS011;8243;49.048;8.396;2023-04-06T12:46:28;6.17;;;5.00;;
16270;SDS011;8243;49.048;8.396;2023-04-06T12:48:57;5.33;;;4.83;;
16270;SDS011;8243;49.048;8.396;2023-04-06T12:51:24;5.20;;;4.70;;
16270;SDS011;8243;49.048;8.396;2023-04-06T12:53:50;6.30;;;5.40;;
16270;SDS011;8243;49.048;8.396;2023-04-06T12:56:16;5.50;;;5.00;;
16270;SDS011;8243;49.048;8.396;2023-04-06T12:58:44;7.37;;;5.10;;
16270;SDS011;8243;49.048;8.396;2023-04-06T13:01:10;6.13;;;4.50;;
16270;SDS011;8243;49.048;8.396;2023-04-06T13:03:42;5.47;;;4.97;;
16270;SDS011;8243;49.048;8.396;2023-04-06T13:06:08;5.77;;;5.27;;
16270;SDS011;8243;49.048;8.396;2023-04-06T13:08:34;5.57;;;5.07;;
16270;SDS011;8243;49.048;8.396;2023-04-06T13:11:02;5.73;;;5.23;;
16270;SDS011;8243;49.048;8.396;2023-04-06T13:13:29;4.87;;;4.30;;
16270;SDS011;8243;49.048;8.396;2023-04-06T13:15:58;6.97;;;5.27;;
16270;SDS011;8243;49.048;8.396;2023-04-06T13:18:26;6.17;;;5.57;;
16270;SDS011;8243;49.048;8.396;2023-04-06T13:20:51;7.40;;;5.70;;
16270;SDS011;8243;49.048;8.396;2023-04-06T13:23:17;8.13;;;5.23;;
16270;SDS011;8243;49.048;8.396;2023-04-06T13:25:42;6.17;;;5.57;;
16270;SDS011;8243;49.048;8.396;2023-04-06T13:28:08;5.37;;;4.87;;
16270;SDS011;8243;49.048;8.396;2023-04-06T13:30:35;8.27;;;4.63;;
16270;SDS011;8243;49.048;8.396;2023-04-06T13:33:00;5.17;;;4.50;;
16270;SDS011;8243;49.048;8.396;2023-04-06T13:35:26;8.20;;;4.77;;
16270;SDS011;8243;49.048;8.396;2023-04-06T13:37:52;7.37;;;5.47;;
16270;SDS011;8243;49.048;8.396;2023-04-06T13:40:18;4.63;;;4.23;;
16270;SDS011;8243;49.048;8.396;2023-04-06T13:42:43;5.80;;;4.80;;
16270;SDS011;8243;49.048;8.396;2023-04-06T13:45:11;5.20;;;4.50;;
16270;SDS011;8243;49.048;8.396;2023-04-06T13:47:37;5.10;;;4.60;;
16270;SDS011;8243;49.048;8.396;2023-04-06T13:50:02;6.10;;;4.40;;
16270;SDS011;8243;49.048;8.396;2023-04-06T13:52:28;4.90;;;4.40;;
16270;SDS011;8243;49.048;8.396;2023-04-06T13:54:54;4.80;;;4.30;;
16270;SDS011;8243;49.048;8.396;2023-04-06T13:57:20;5.30;;;4.50;;
16270;SDS011;8243;49.048;8.396;2023-04-06T13:59:45;4.70;;;4.30;;
16270;SDS011;8243;49.048;8.396;2023-04-06T14:02:11;5.63;;;4.67;;
16270;SDS011;8243;49.048;8.396;2023-04-06T14:04:36;5.47;;;4.73;;
16270;SDS011;8243;49.048;8.396;2023-04-06T14:07:02;5.60;;;4.80;;
16270;SDS011;8243;49.048;8.396;2023-04-06T14:09:28;5.37;;;4.63;;
16270;SDS011;8243;49.048;8.396;2023-04-06T14:11:54;6.60;;;4.87;;
16270;SDS011;8243;49.048;8.396;2023-04-06T14:14:21;7.07;;;4.83;;
16270;SDS011;8243;49.048;8.396;2023-04-06T14:16:47;5.93;;;5.33;;
16270;SDS011;8243;49.048;8.396;2023-04-06T14:19:14;6.77;;;5.67;;
16270;SDS011;8243;49.048;8.396;2023-04-06T14:21:42;6.73;;;6.03;;
16270;SDS011;8243;49.048;8.396;2023-04-06T14:24:08;6.43;;;5.70;;
16270;SDS011;8243;49.048;8.396;2023-04-06T14:26:37;7.10;;;6.30;;
16270;SDS011;8243;49.048;8.396;2023-04-06T14:29:04;9.50;;;6.40;;
16270;SDS011;8243;49.048;8.396;2023-04-06T14:31:30;10.50;;;6.90;;
16270;SDS011;8243;49.048;8.396;2023-04-06T14:33:56;7.93;;;6.00;;
16270;SDS011;8243;49.048;8.396;2023-04-06T14:36:22;7.70;;;6.40;;
16270;SDS011;8243;49.048;8.396;2023-04-06T14:38:48;7.10;;;6.17;;
16270;SDS011;8243;49.048;8.396;2023-04-06T14:41:20;8.93;;;6.40;;
16270;SDS011;8243;49.048;8.396;2023-04-06T14:43:47;9.33;;;6.73;;
16270;SDS011;8243;49.048;8.396;2023-04-06T14:46:13;7.60;;;6.33;;
16270;SDS011;8243;49.048;8.396;2023-04-06T14:48:40;8.07;;;6.60;;
16270;SDS011;8243;49.048;8.396;2023-04-06T14:51:06;7.90;;;5.97;;
16270;SDS011;8243;49.048;8.396;2023-04-06T14:53:31;7.20;;;6.37;;
16270;SDS011;8243;49.048;8.396;2023-04-06T14:55:57;9.00;;;6.50;;
16270;SDS011;8243;49.048;8.396;2023-04-06T14:58:23;8.90;;;6.50;;
16270;SDS011;8243;49.048;8.396;2023-04-06T15:00:54;6.77;;;5.70;;
16270;SDS011;8243;49.048;8.396;2023-04-06T15:03:24;6.80;;;6.10;;
16270;SDS011;8243;49.048;8.396;2023-04-06T15:05:50;7.20;;;5.77;;
16270;SDS011;8243;49.048;8.396;2023-04-06T15:08:16;8.83;;;7.20;;